DUNK1: Neosho River Nr Dunlap, KS

Data processed at Wed May 22 2019 23:50


All information presented herein is the property of the government of the United States of America and may be revised or deleted at any time without prior notice.
Dissemination of this information without the expressed written consent of the Public Affairs Office, Tulsa District U.S. Army Corps of Engineers is strictly prohibited.
These data are gathered electronically and, as presented, have not undergone any form of quality control. These data are not guaranteed to be valid or correct.
Go to home page.
Go to station list.
Go to home page.

Upstream stations:

Downstream station:
Previous Day
Next Day
Current Day
    
SHEF ID:       DUNK1     NEOSHO R NR DUNLAP, KS
STATION TYPE:  
Regulating: Stage =    26.00, Flow =     5679

               PRECIP     STAGE  RIV-FLOW  BAT-LOAD
                   in        ft       cfs      volt
              Ccp-Rev   Ccp-Rev   Ccp-Rev   Ccp-Rev
(US/Central)
05/22 00:00      0.00     21.57      2979     12.77
05/22 01:00      0.00     21.38      2905     12.77
05/22 02:00      0.00     21.28      2866     12.71
05/22 03:00      0.00     20.93      2734     12.71
05/22 04:00      0.00     21.02      2767     12.65
05/22 05:00      0.00     20.69      2645     12.65
05/22 06:00      0.00     20.55      2594     12.60
05/22 07:00      0.00     20.45      2559     12.60
05/22 08:00      0.00     20.56      2598     13.00
05/22 09:00      0.00     20.63      2623     13.18
05/22 10:00      0.00     20.93      2734     13.59
05/22 11:00      0.00     21.12      2805     13.88
05/22 12:00      0.00     21.34      2889     13.94
05/22 13:00      0.00     21.65      3010     13.83
05/22 14:00      0.00     21.90      3111     13.53
05/22 15:00      0.00     21.78      3062     13.42
05/22 16:00      0.00     21.66      3014     13.18
05/22 17:00      0.00     21.51      2955     13.18
05/22 18:00      0.00     21.43      2924     13.12
05/22 19:00      0.00     21.08      2790     13.12
05/22 20:00      0.00     20.75      2667     13.00
05/22 21:00      0.00     20.54      2591     13.00
05/22 22:00      0.00     20.36      2527     12.95
05/22 23:00      0.00     20.14      2450     12.89